Temp: 15.8°C   Baro: 1015.3mb
  Wind: 0.0mph   Dir: WNW (298°)
  Rain: 0.0mm (0.0mm/hr)
  Solar: 0W/m2  Hum: 94%
 
Bath Spa Weather Station Historical Data
 
Daily Summary for September 25, 2021 Units:  Metric    English   Both
Daily Weekly Monthly Yearly Custom
  Current: High: Low: Average:
Temperature: 15.8 °C 16.8 °C 15.8 °C 16.2 °C
Dew Point: 15.3 °C 16.1 °C 15.2 °C 15.6 °C
Humidity: 93.8% 94% 92% 94%
Wind Speed: 1km/h 6.8km/h 1km/h 3.7km/h
Wind Gust: 4.8km/h 11.3km/h - -
WindWNW - - WNW
Pressure: 1015.1 hPa 1016.1 hPa 1015.1 hPa -
Precipitation: 0 mm      
Historical Graphs
 
 
Tabular Data for September 25, 2021
Time Temperature Dew Point Pressure Wind Wind Speed Wind Gust Humidity Rainfall Rate (Hourly) solar
00:04 16.8 °C 16.1 °C 1016.1 hPa WNW 3.9 km/h 8 km/h 92% 0 mm 0 W/m2
00:09 16.8 °C 16 °C 1016.1 hPa WNW 4.8 km/h 8 km/h 92% 0 mm 0 W/m2
00:14 16.8 °C 16 °C 1016.1 hPa WNW 5.8 km/h 9.7 km/h 92% 0 mm 0 W/m2
00:18 16.8 °C 16 °C 1016.1 hPa WNW 4.3 km/h 8 km/h 92% 0 mm 0 W/m2
00:24 16.8 °C 16 °C 1016.1 hPa WNW 5.3 km/h 8 km/h 92% 0 mm 0 W/m2
00:29 16.7 °C 15.9 °C 1016.1 hPa WNW 2.7 km/h 8 km/h 92% 0 mm 0 W/m2
00:34 16.7 °C 16 °C 1016.1 hPa WNW 3.1 km/h 8 km/h 92.6% 0 mm 0 W/m2
00:39 16.7 °C 16.1 °C 1016.1 hPa WNW 4 km/h 8 km/h 93% 0 mm 0 W/m2
00:44 16.6 °C 16 °C 1016.1 hPa WNW 5.5 km/h 8 km/h 93% 0 mm 0 W/m2
00:49 16.6 °C 15.9 °C 1016.1 hPa WNW 2.3 km/h 6.4 km/h 93% 0 mm 0 W/m2
00:54 16.4 °C 15.8 °C 1016.1 hPa WNW 4.5 km/h 8 km/h 93% 0 mm 0 W/m2
00:59 16.4 °C 15.8 °C 1016.1 hPa WNW 3.4 km/h 8 km/h 93% 0 mm 0 W/m2
01:04 16.4 °C 15.8 °C 1015.8 hPa WNW 6.8 km/h 11.3 km/h 93% 0 mm 0 W/m2
01:09 16.4 °C 15.8 °C 1015.8 hPa WNW 3.7 km/h 8 km/h 93% 0 mm 0 W/m2
01:14 16.3 °C 15.7 °C 1015.8 hPa WNW 4.2 km/h 8 km/h 93% 0 mm 0 W/m2
01:19 16.3 °C 15.7 °C 1015.8 hPa WNW 2.6 km/h 6.4 km/h 93% 0 mm 0 W/m2
01:24 16.3 °C 15.7 °C 1015.8 hPa WNW 4.7 km/h 9.7 km/h 93% 0 mm 0 W/m2
01:29 16.3 °C 15.7 °C 1015.8 hPa WNW 6.6 km/h 11.3 km/h 93% 0 mm 0 W/m2
01:34 16.3 °C 15.8 °C 1015.8 hPa WNW 2.6 km/h 6.4 km/h 93.8% 0 mm 0 W/m2
01:39 16.3 °C 15.8 °C 1016.1 hPa WNW 3.2 km/h 9.7 km/h 94% 0 mm 0 W/m2
01:44 16.2 °C 15.7 °C 1016.1 hPa WNW 4 km/h 9.7 km/h 94% 0 mm 0 W/m2
01:49 16.2 °C 15.7 °C 1016.1 hPa WNW 5.1 km/h 8 km/h 94% 0 mm 0 W/m2
01:54 16.2 °C 15.7 °C 1015.8 hPa WNW 4.7 km/h 8 km/h 94% 0 mm 0 W/m2
01:59 16.2 °C 15.7 °C 1015.8 hPa WNW 2.7 km/h 8 km/h 94% 0 mm 0 W/m2
02:04 16.2 °C 15.7 °C 1015.8 hPa WNW 4.7 km/h 9.7 km/h 94% 0 mm 0 W/m2
02:09 16.1 °C 15.6 °C 1015.8 hPa WNW 3.1 km/h 9.7 km/h 94% 0 mm 0 W/m2
02:14 16.1 °C 15.6 °C 1015.8 hPa WNW 4 km/h 8 km/h 94% 0 mm 0 W/m2
02:19 16.1 °C 15.6 °C 1015.8 hPa WNW 4.7 km/h 9.7 km/h 94% 0 mm 0 W/m2
02:24 16 °C 15.5 °C 1015.8 hPa WNW 2.7 km/h 9.7 km/h 94% 0 mm 0 W/m2
02:29 16 °C 15.5 °C 1015.8 hPa WNW 4 km/h 9.7 km/h 94% 0 mm 0 W/m2
02:34 16 °C 15.5 °C 1015.8 hPa WNW 4.7 km/h 9.7 km/h 94% 0 mm 0 W/m2
02:39 16 °C 15.5 °C 1015.8 hPa WNW 3.2 km/h 8 km/h 94% 0 mm 0 W/m2
02:44 15.9 °C 15.4 °C 1015.8 hPa WNW 3.4 km/h 11.3 km/h 94% 0 mm 0 W/m2
02:49 15.9 °C 15.4 °C 1015.8 hPa WNW 4.7 km/h 9.7 km/h 94% 0 mm 0 W/m2
02:54 15.9 °C 15.4 °C 1015.8 hPa WNW 4 km/h 8 km/h 94% 0 mm 0 W/m2
02:59 15.9 °C 15.4 °C 1015.8 hPa WNW 2.4 km/h 4.8 km/h 94% 0 mm 0 W/m2
03:04 15.9 °C 15.4 °C 1015.8 hPa WNW 1.6 km/h 4.8 km/h 94% 0 mm 0 W/m2
03:09 15.9 °C 15.4 °C 1015.8 hPa WNW 1 km/h 4.8 km/h 94% 0 mm 0 W/m2
03:14 15.9 °C 15.4 °C 1015.8 hPa WNW 2.7 km/h 6.4 km/h 94% 0 mm 0 W/m2
03:19 15.9 °C 15.4 °C 1015.8 hPa WNW 4.8 km/h 8 km/h 94% 0 mm 0 W/m2
03:24 15.8 °C 15.3 °C 1015.5 hPa WNW 3.7 km/h 8 km/h 94% 0 mm 0 W/m2
03:29 15.8 °C 15.3 °C 1015.5 hPa WNW 4 km/h 8 km/h 94% 0 mm 0 W/m2
03:34 15.8 °C 15.3 °C 1015.5 hPa WNW 3.9 km/h 8 km/h 94% 0 mm 0 W/m2
03:39 15.8 °C 15.3 °C 1015.5 hPa WNW 4.7 km/h 9.7 km/h 94% 0 mm 0 W/m2
03:44 15.8 °C 15.3 °C 1015.1 hPa WNW 3.5 km/h 8 km/h 94% 0 mm 0 W/m2
03:49 15.8 °C 15.2 °C 1015.1 hPa WNW 2.7 km/h 8 km/h 93.4% 0 mm 0 W/m2
03:54 15.8 °C 15.2 °C 1015.1 hPa WNW 1.4 km/h 4.8 km/h 93% 0 mm 0 W/m2
03:59 15.8 °C 15.3 °C 1015.1 hPa WNW 3.4 km/h 8 km/h 94% 0 mm 0 W/m2
04:04 15.8 °C 15.3 °C 1015.1 hPa WNW 1.4 km/h 4.8 km/h 93.8% 0 mm 0 W/m2
04:09 15.8 °C 15.3 °C 1015.1 hPa WNW 2.1 km/h 4.8 km/h 94% 0 mm 0 W/m2
04:14 15.8 °C 15.3 °C 1015.1 hPa WNW 1 km/h 4.8 km/h 93.8% 0 mm 0 W/m2
Bath Spa Weather
Compliments of Weather Underground - 2 mb